createdAt,value
2018-07-19T00:00:32.242Z,98468.31
2018-07-19T00:03:01.934Z,98470.70
2018-07-19T00:05:31.846Z,98470.84
2018-07-19T00:08:01.314Z,98474.95
2018-07-19T00:10:30.763Z,98474.38
2018-07-19T00:13:00.204Z,98472.98
2018-07-19T00:15:29.708Z,98472.89
2018-07-19T00:17:59.228Z,98476.86
2018-07-19T00:20:29.298Z,98476.72
2018-07-19T00:22:58.733Z,98476.50
2018-07-19T00:25:28.144Z,98471.38
2018-07-19T00:27:57.558Z,98480.66
2018-07-19T00:30:26.999Z,98470.77
2018-07-19T00:32:56.458Z,98477.75
2018-07-19T00:35:26.747Z,98479.58
2018-07-19T00:37:56.236Z,98476.50
2018-07-19T00:40:25.837Z,98481.27
2018-07-19T00:42:55.361Z,98480.39
2018-07-19T00:45:24.840Z,98485.88
2018-07-19T00:47:54.269Z,98481.98
2018-07-19T00:50:23.727Z,98486.83
2018-07-19T00:52:53.170Z,98481.34
2018-07-19T00:55:22.617Z,98492.42
2018-07-19T00:57:52.062Z,98484.77
2018-07-19T01:00:21.458Z,98490.79
2018-07-19T01:02:50.580Z,98489.61
2018-07-19T01:05:20.582Z,98487.27
2018-07-19T01:07:49.991Z,98478.59
2018-07-19T01:10:19.425Z,98482.11
2018-07-19T01:12:48.902Z,98484.52
2018-07-19T01:15:18.103Z,98480.69
2018-07-19T01:17:47.532Z,98481.19
2018-07-19T01:20:16.917Z,98485.39
2018-07-19T01:22:46.476Z,98486.64
2018-07-19T01:25:16.088Z,98490.42
2018-07-19T01:27:45.515Z,98493.27
2018-07-19T01:30:15.033Z,98489.61
2018-07-19T01:32:44.498Z,98487.91
2018-07-19T01:35:13.935Z,98486.52
2018-07-19T01:37:43.410Z,98482.13
2018-07-19T01:40:12.847Z,98490.23
2018-07-19T01:42:44.368Z,98491.75
2018-07-19T01:45:14.396Z,98488.45
2018-07-19T01:47:44.064Z,98482.05
2018-07-19T01:50:13.650Z,98481.85
2018-07-19T01:52:43.435Z,98482.18
2018-07-19T01:55:14.909Z,98477.96
2018-07-19T01:57:44.313Z,98486.08
2018-07-19T02:00:13.493Z,98481.54
2018-07-19T02:02:42.644Z,98481.66
2018-07-19T02:05:12.265Z,98479.53
2018-07-19T02:07:41.698Z,98476.20
2018-07-19T02:10:11.194Z,98473.61
2018-07-19T02:12:40.717Z,98472.28
2018-07-19T02:15:10.206Z,98470.20
2018-07-19T02:17:39.655Z,98471.64
2018-07-19T02:20:09.665Z,98471.25
2018-07-19T02:22:39.122Z,98476.14
2018-07-19T02:25:09.274Z,98469.89
2018-07-19T02:27:38.728Z,98470.20
2018-07-19T02:30:08.153Z,98469.66
2018-07-19T02:32:37.620Z,98463.22
2018-07-19T02:35:07.187Z,98473.16
2018-07-19T02:37:36.626Z,98474.31
2018-07-19T02:40:06.430Z,98472.18
2018-07-19T02:42:37.080Z,98463.26
2018-07-19T02:45:07.576Z,98468.26
2018-07-19T02:47:37.069Z,98466.63
2018-07-19T02:50:06.776Z,98461.89
2018-07-19T02:52:36.183Z,98461.16
2018-07-19T02:55:05.659Z,98460.41
2018-07-19T02:57:35.091Z,98463.66
2018-07-19T03:00:05.325Z,98461.25
2018-07-19T03:02:35.425Z,98456.80
2018-07-19T03:05:05.166Z,98459.63
2018-07-19T03:07:34.596Z,98452.00
2018-07-19T03:10:04.341Z,98459.20
2018-07-19T03:12:33.707Z,98452.61
2018-07-19T03:15:03.141Z,98456.69
2018-07-19T03:17:33.625Z,98448.27
2018-07-19T03:20:03.066Z,98450.48
2018-07-19T03:22:32.569Z,98459.85
2018-07-19T03:25:01.991Z,98459.83
2018-07-19T03:27:31.484Z,98464.79
2018-07-19T03:30:00.923Z,98461.34
2018-07-19T03:32:30.367Z,98463.19
2018-07-19T03:34:59.515Z,98464.34
2018-07-19T03:37:28.883Z,98469.30
2018-07-19T03:39:58.332Z,98469.50
2018-07-19T03:42:27.781Z,98466.14
2018-07-19T03:44:57.237Z,98471.83
2018-07-19T03:47:27.850Z,98469.61
2018-07-19T03:49:58.893Z,98464.73
2018-07-19T03:52:28.430Z,98463.41
2018-07-19T03:54:58.069Z,98463.50
2018-07-19T03:57:28.077Z,98460.86
2018-07-19T03:59:57.510Z,98466.05
2018-07-19T04:02:27.493Z,98476.09
2018-07-19T04:04:56.871Z,98473.95
2018-07-19T04:07:26.415Z,98470.70
2018-07-19T04:09:56.287Z,98479.26
2018-07-19T04:12:25.707Z,98469.91
2018-07-19T04:14:55.095Z,98473.98
2018-07-19T04:17:24.599Z,98466.47
2018-07-19T04:19:54.613Z,98468.70
2018-07-19T04:22:24.166Z,98469.91
2018-07-19T04:24:53.832Z,98466.34
2018-07-19T04:27:23.266Z,98465.25
2018-07-19T04:29:58.146Z,98467.69
2018-07-19T04:32:28.295Z,98467.19
2018-07-19T04:34:57.771Z,98474.59
2018-07-19T04:37:27.266Z,98471.05
2018-07-19T04:39:56.438Z,98471.75
2018-07-19T04:42:25.878Z,98476.52
2018-07-19T04:44:55.004Z,98472.67
2018-07-19T04:47:24.481Z,98469.53
2018-07-19T04:49:53.955Z,98473.48
2018-07-19T04:52:23.504Z,98471.25
2018-07-19T04:54:52.960Z,98474.17
2018-07-19T04:57:22.366Z,98478.33
2018-07-19T04:59:51.830Z,98478.55
2018-07-19T05:02:21.666Z,98469.95
2018-07-19T05:04:51.166Z,98475.32
2018-07-19T05:07:20.626Z,98470.69
2018-07-19T05:09:50.189Z,98474.00
2018-07-19T05:12:19.670Z,98471.27
2018-07-19T05:14:49.107Z,98469.03
2018-07-19T05:17:18.598Z,98477.33
2018-07-19T05:19:48.048Z,98479.44
2018-07-19T05:22:17.506Z,98475.88
2018-07-19T05:24:46.941Z,98473.26
2018-07-19T05:27:16.400Z,98475.47
2018-07-19T05:29:45.853Z,98475.67
2018-07-19T05:32:15.325Z,98476.88
2018-07-19T05:34:44.723Z,98481.12
2018-07-19T05:37:14.242Z,98483.61
2018-07-19T05:39:44.335Z,98476.09
2018-07-19T05:42:13.786Z,98475.16
2018-07-19T05:44:43.256Z,98474.16
2018-07-19T05:47:12.853Z,98481.25
2018-07-19T05:49:43.191Z,98481.87
2018-07-19T05:52:12.693Z,98476.45
2018-07-19T05:54:42.144Z,98466.59
2018-07-19T05:57:11.811Z,98472.88
2018-07-19T05:59:41.289Z,98477.07
2018-07-19T06:02:10.705Z,98478.08
2018-07-19T06:04:40.257Z,98475.70
2018-07-19T06:07:09.883Z,98482.26
2018-07-19T06:09:39.365Z,98475.62
2018-07-19T06:12:08.814Z,98480.23
2018-07-19T06:14:38.272Z,98481.73
2018-07-19T06:17:08.635Z,98474.58
2018-07-19T06:19:38.090Z,98473.14
2018-07-19T06:22:07.518Z,98477.08
2018-07-19T06:24:36.959Z,98472.55
2018-07-19T06:27:06.539Z,98474.25
2018-07-19T06:29:36.008Z,98471.05
2018-07-19T06:32:06.666Z,98475.45
2018-07-19T06:34:36.111Z,98472.45
2018-07-19T06:37:06.093Z,98474.02
2018-07-19T06:39:35.503Z,98483.20
2018-07-19T06:42:04.998Z,98485.50
2018-07-19T06:44:34.622Z,98480.66
2018-07-19T06:47:04.733Z,98480.83
2018-07-19T06:49:34.210Z,98483.68
2018-07-19T06:52:03.617Z,98485.23
2018-07-19T06:54:33.020Z,98482.52
2018-07-19T06:57:02.488Z,98489.36
2018-07-19T06:59:31.974Z,98485.85
2018-07-19T07:02:01.576Z,98482.34
2018-07-19T07:04:31.037Z,98486.60
2018-07-19T07:07:00.530Z,98488.36
2018-07-19T07:09:29.947Z,98483.04
2018-07-19T07:11:59.439Z,98478.02
2018-07-19T07:14:28.881Z,98485.66
2018-07-19T07:16:58.331Z,98477.78
2018-07-19T07:19:27.804Z,98471.53
2018-07-19T07:21:57.199Z,98473.88
2018-07-19T07:24:26.335Z,98476.08
2018-07-19T07:26:55.786Z,98474.92
2018-07-19T07:29:25.356Z,98469.30
2018-07-19T07:31:54.793Z,98469.37
2018-07-19T07:34:24.372Z,98468.75
2018-07-19T07:36:53.905Z,98473.25
2018-07-19T07:39:23.089Z,98474.46
2018-07-19T07:41:53.160Z,98468.57
2018-07-19T07:44:22.604Z,98470.29
2018-07-19T07:46:52.011Z,98471.52
2018-07-19T07:49:21.488Z,98473.50
2018-07-19T07:51:50.976Z,98474.77
2018-07-19T07:54:20.544Z,98472.97
2018-07-19T07:56:49.712Z,98473.06
2018-07-19T07:59:20.117Z,98472.59
2018-07-19T08:01:49.213Z,98471.67
2018-07-19T08:04:18.687Z,98473.91
2018-07-19T08:06:48.152Z,98474.88
2018-07-19T08:09:17.626Z,98470.93
2018-07-19T08:11:47.209Z,98469.72
2018-07-19T08:14:16.713Z,98470.83
2018-07-19T08:16:46.220Z,98468.34
2018-07-19T08:19:15.701Z,98471.10
2018-07-19T08:21:45.241Z,98464.80
2018-07-19T08:24:14.708Z,98469.15
2018-07-19T08:26:44.189Z,98458.05
2018-07-19T08:29:13.635Z,98456.61
2018-07-19T08:31:43.219Z,98458.34
2018-07-19T08:34:12.690Z,98452.91
2018-07-19T08:36:42.199Z,98452.45
2018-07-19T08:39:13.700Z,98451.70
2018-07-19T08:41:44.860Z,98450.94
2018-07-19T08:44:14.310Z,98449.80
2018-07-19T08:46:43.774Z,98447.53
2018-07-19T08:49:13.190Z,98445.20
2018-07-19T08:51:43.838Z,98444.26
2018-07-19T08:54:13.286Z,98442.83
2018-07-19T08:56:42.785Z,98440.80
2018-07-19T08:59:12.208Z,98437.72
2018-07-19T09:01:41.678Z,98438.23
2018-07-19T09:04:11.169Z,98432.80
2018-07-19T09:06:40.624Z,98430.02
2018-07-19T09:09:10.939Z,98434.23
2018-07-19T09:11:40.441Z,98430.57
2018-07-19T09:14:09.899Z,98430.91
2018-07-19T09:16:39.295Z,98432.44
2018-07-19T09:19:08.812Z,98429.11
2018-07-19T09:21:38.357Z,98434.27
2018-07-19T09:24:08.355Z,98428.46
2018-07-19T09:26:37.900Z,98427.22
2018-07-19T09:29:07.310Z,98428.40
2018-07-19T09:31:36.771Z,98425.75
2018-07-19T09:34:06.537Z,98419.66
2018-07-19T09:36:35.984Z,98423.85
2018-07-19T09:39:10.406Z,98414.89
2018-07-19T09:41:40.924Z,98409.14
2018-07-19T09:44:10.629Z,98424.67
2018-07-19T09:46:40.168Z,98410.85
2018-07-19T09:49:09.570Z,98409.50
2018-07-19T09:51:38.996Z,98409.48
2018-07-19T09:54:08.437Z,98408.70
2018-07-19T09:56:37.876Z,98410.65
2018-07-19T09:59:07.273Z,98412.28
2018-07-19T10:01:36.704Z,98407.81
2018-07-19T10:04:07.077Z,98407.58
2018-07-19T10:06:36.509Z,98414.27
2018-07-19T10:09:07.416Z,98406.83
2018-07-19T10:11:36.538Z,98405.73
2018-07-19T10:14:06.260Z,98398.30
2018-07-19T10:16:35.672Z,98403.70
2018-07-19T10:19:05.232Z,98410.42
2018-07-19T10:21:34.784Z,98401.94
2018-07-19T10:24:04.213Z,98406.46
2018-07-19T10:26:33.702Z,98402.45
2018-07-19T10:29:03.059Z,98405.09
2018-07-19T10:31:32.205Z,98407.75
2018-07-19T10:34:01.754Z,98395.50
2018-07-19T10:36:31.202Z,98401.37
2018-07-19T10:39:00.662Z,98400.08
2018-07-19T10:41:30.810Z,98392.60
2018-07-19T10:44:00.314Z,98393.97
2018-07-19T10:46:29.821Z,98392.11
2018-07-19T10:48:59.291Z,98392.39
2018-07-19T10:51:28.779Z,98384.91
2018-07-19T10:53:58.186Z,98389.45
2018-07-19T10:56:27.675Z,98391.63
2018-07-19T10:58:57.171Z,98388.17
2018-07-19T11:01:26.610Z,98387.40
2018-07-19T11:03:55.904Z,98390.35
2018-07-19T11:06:25.378Z,98388.21
2018-07-19T11:08:54.559Z,98386.88
2018-07-19T11:11:23.981Z,98390.03
2018-07-19T11:13:53.147Z,98380.41
2018-07-19T11:16:22.666Z,98378.83
2018-07-19T11:18:52.204Z,98375.11
2018-07-19T11:21:21.748Z,98378.34
2018-07-19T11:23:51.448Z,98369.27
2018-07-19T11:26:20.920Z,98375.94
2018-07-19T11:28:50.380Z,98366.59
2018-07-19T11:31:19.846Z,98364.20
2018-07-19T11:33:49.304Z,98359.95
2018-07-19T11:36:18.808Z,98357.82
2018-07-19T11:38:48.251Z,98359.98
2018-07-19T11:41:17.866Z,98359.98
2018-07-19T11:43:47.256Z,98359.47
2018-07-19T11:46:16.730Z,98357.05
2018-07-19T11:48:46.162Z,98351.45
2018-07-19T11:51:15.788Z,98351.72
2018-07-19T11:53:45.296Z,98360.54
2018-07-19T11:56:15.622Z,98357.33
2018-07-19T11:58:45.159Z,98353.84
2018-07-19T12:01:14.594Z,98350.37
2018-07-19T12:03:44.107Z,98346.63
2018-07-19T12:06:13.636Z,98344.50
2018-07-19T12:08:43.061Z,98343.69
2018-07-19T12:11:13.074Z,98338.08
2018-07-19T12:13:42.658Z,98332.22
2018-07-19T12:16:12.511Z,98331.41
2018-07-19T12:18:41.963Z,98333.85
2018-07-19T12:21:11.477Z,98329.04
2018-07-19T12:23:40.591Z,98333.84
2018-07-19T12:26:10.031Z,98330.36
2018-07-19T12:28:39.475Z,98336.22
2018-07-19T12:31:08.933Z,98336.23
2018-07-19T12:33:38.348Z,98335.43
2018-07-19T12:36:07.984Z,98332.51
2018-07-19T12:38:37.441Z,98338.62
2018-07-19T12:41:06.992Z,98329.27
2018-07-19T12:43:36.445Z,98327.11
2018-07-19T12:46:05.885Z,98327.34
2018-07-19T12:48:35.411Z,98323.59
2018-07-19T12:51:04.937Z,98323.89
2018-07-19T12:53:34.872Z,98321.20
2018-07-19T12:56:04.408Z,98316.09
2018-07-19T12:58:34.140Z,98314.48
2018-07-19T13:01:03.558Z,98327.81
2018-07-19T13:03:33.004Z,98318.92
2018-07-19T13:06:02.558Z,98320.77
2018-07-19T13:08:32.193Z,98314.38
2018-07-19T13:11:01.709Z,98316.75
2018-07-19T13:13:31.823Z,98311.95
2018-07-19T13:16:01.723Z,98308.18
2018-07-19T13:18:31.317Z,98306.27
2018-07-19T13:21:00.903Z,98301.13
2018-07-19T13:23:30.426Z,98303.80
2018-07-19T13:25:59.900Z,98298.20
2018-07-19T13:28:29.340Z,98296.02
2018-07-19T13:30:58.809Z,98294.67
2018-07-19T13:33:28.157Z,98289.55
2018-07-19T13:35:57.608Z,98290.86
2018-07-19T13:38:26.774Z,98286.82
2018-07-19T13:40:56.437Z,98284.06
2018-07-19T13:43:25.849Z,98284.81
2018-07-19T13:45:55.433Z,98284.48
2018-07-19T13:48:24.586Z,98280.38
2018-07-19T13:50:54.093Z,98278.72
2018-07-19T13:53:41.730Z,98285.56
2018-07-19T13:56:11.220Z,98281.64
2018-07-19T13:58:40.378Z,98280.48
2018-07-19T14:01:09.516Z,98271.87
2018-07-19T14:03:39.008Z,98271.52
2018-07-19T14:06:08.514Z,98270.87
2018-07-19T14:08:38.017Z,98269.17
2018-07-19T14:11:07.468Z,98263.67
2018-07-19T14:13:36.965Z,98269.23
2018-07-19T14:16:06.467Z,98266.81
2018-07-19T14:18:36.088Z,98265.47
2018-07-19T14:21:05.491Z,98259.95
2018-07-19T14:23:34.955Z,98256.33
2018-07-19T14:26:04.446Z,98256.95
2018-07-19T14:28:33.953Z,98258.96
2018-07-19T14:31:03.425Z,98249.52
2018-07-19T14:33:32.976Z,98238.22
2018-07-19T14:36:02.515Z,98247.10
2018-07-19T14:38:31.972Z,98241.68
2018-07-19T14:41:01.135Z,98243.88
2018-07-19T14:43:30.588Z,98238.34
2018-07-19T14:46:00.050Z,98239.52
2018-07-19T14:48:29.465Z,98233.23
2018-07-19T14:50:58.621Z,98236.34
2018-07-19T14:53:28.149Z,98230.77
2018-07-19T14:55:57.551Z,98235.69
2018-07-19T14:58:26.989Z,98234.63
2018-07-19T15:00:56.154Z,98227.31
2018-07-19T15:03:25.529Z,98227.27
2018-07-19T15:05:55.019Z,98221.51
2018-07-19T15:08:24.525Z,98220.85
2018-07-19T15:10:54.046Z,98218.75
2018-07-19T15:13:23.457Z,98222.67
2018-07-19T15:15:53.023Z,98215.41
2018-07-19T15:18:22.470Z,98217.73
2018-07-19T15:20:51.899Z,98220.52
2018-07-19T15:23:21.385Z,98222.06
2018-07-19T15:25:50.908Z,98217.89
2018-07-19T15:28:20.366Z,98216.53
2018-07-19T15:30:49.833Z,98210.61
2018-07-19T15:33:19.315Z,98208.89
2018-07-19T15:35:48.753Z,98199.91
2018-07-19T15:38:18.148Z,98199.16
2018-07-19T15:40:47.671Z,98196.57
2018-07-19T15:43:17.153Z,98193.25
2018-07-19T15:45:46.597Z,98193.58
2018-07-19T15:48:16.020Z,98195.00
2018-07-19T15:50:45.404Z,98192.67
2018-07-19T15:53:14.855Z,98189.17
2018-07-19T15:55:44.265Z,98182.45
2018-07-19T15:58:13.644Z,98178.55
2018-07-19T16:00:43.077Z,98175.66
2018-07-19T16:03:12.509Z,98182.35
2018-07-19T16:05:41.964Z,98178.16
2018-07-19T16:08:11.447Z,98176.62
2018-07-19T16:10:40.879Z,98175.25
2018-07-19T16:13:10.364Z,98173.83
2018-07-19T16:15:39.752Z,98172.67
2018-07-19T16:18:09.227Z,98180.39
2018-07-19T16:20:38.652Z,98175.03
2018-07-19T16:23:08.087Z,98179.00
2018-07-19T16:25:37.544Z,98170.73
2018-07-19T16:28:07.065Z,98174.97
2018-07-19T16:30:36.485Z,98173.50
2018-07-19T16:33:06.062Z,98166.09
2018-07-19T16:35:35.522Z,98169.81
2018-07-19T16:38:04.926Z,98169.81
2018-07-19T16:40:34.340Z,98161.00
2018-07-19T16:43:03.844Z,98159.91
2018-07-19T16:45:33.248Z,98162.79
2018-07-19T16:48:02.613Z,98158.75
2018-07-19T16:50:32.054Z,98152.81
2018-07-19T16:53:01.452Z,98154.90
2018-07-19T16:55:30.933Z,98146.05
2018-07-19T16:58:00.369Z,98145.12
2018-07-19T17:00:29.837Z,98151.67
2018-07-19T17:02:59.206Z,98149.87
2018-07-19T17:05:28.641Z,98150.72
2018-07-19T17:07:58.080Z,98146.27
2018-07-19T17:10:27.519Z,98147.08
2018-07-19T17:12:56.985Z,98149.16
2018-07-19T17:15:26.484Z,98146.72
2018-07-19T17:17:55.892Z,98141.97
2018-07-19T17:20:25.331Z,98148.40
2018-07-19T17:22:54.788Z,98150.58
2018-07-19T17:25:24.238Z,98147.16
2018-07-19T17:27:53.712Z,98141.74
2018-07-19T17:30:23.144Z,98145.20
2018-07-19T17:32:52.653Z,98151.67
2018-07-19T17:35:22.202Z,98154.57
2018-07-19T17:37:51.753Z,98149.73
2018-07-19T17:40:21.278Z,98142.55
2018-07-19T17:42:50.764Z,98142.98
2018-07-19T17:45:20.240Z,98142.72
2018-07-19T17:47:49.656Z,98147.22
2018-07-19T17:50:19.085Z,98142.23
2018-07-19T17:52:48.505Z,98143.42
2018-07-19T17:55:17.964Z,98138.56
2018-07-19T17:57:47.398Z,98136.52
2018-07-19T18:00:16.883Z,98133.70
2018-07-19T18:02:46.421Z,98135.51
2018-07-19T18:05:15.930Z,98132.45
2018-07-19T18:07:45.571Z,98139.06
2018-07-19T18:10:15.013Z,98140.06
2018-07-19T18:12:44.454Z,98143.72
2018-07-19T18:15:13.980Z,98142.23
2018-07-19T18:17:43.400Z,98143.42
2018-07-19T18:20:12.888Z,98144.64
2018-07-19T18:22:42.326Z,98144.69
2018-07-19T18:25:11.818Z,98146.42
2018-07-19T18:27:41.289Z,98145.78
2018-07-19T18:30:10.717Z,98142.91
2018-07-19T18:32:40.236Z,98144.61
2018-07-19T18:35:09.689Z,98144.12
2018-07-19T18:37:39.133Z,98149.05
2018-07-19T18:40:08.628Z,98150.06
2018-07-19T18:42:39.422Z,98144.20
2018-07-19T18:45:08.957Z,98150.70
2018-07-19T18:47:38.388Z,98154.81
2018-07-19T18:50:07.876Z,98153.56
2018-07-19T18:52:37.336Z,98155.70
2018-07-19T18:55:07.761Z,98159.20
2018-07-19T18:57:37.205Z,98156.02
2018-07-19T19:00:06.981Z,98155.56
2018-07-19T19:02:36.445Z,98164.45
2018-07-19T19:05:05.948Z,98160.81
2018-07-19T19:07:35.405Z,98155.50
2018-07-19T19:10:05.009Z,98154.19
2018-07-19T19:12:34.417Z,98161.21
2018-07-19T19:15:03.905Z,98163.92
2018-07-19T19:17:33.383Z,98162.09
2018-07-19T19:20:03.007Z,98164.80
2018-07-19T19:22:32.397Z,98169.36
2018-07-19T19:25:01.836Z,98161.91
2018-07-19T19:27:31.346Z,98170.78
2018-07-19T19:30:00.788Z,98174.53
2018-07-19T19:32:30.275Z,98179.61
2018-07-19T19:34:59.669Z,98176.41
2018-07-19T19:37:29.118Z,98186.02
2018-07-19T19:39:58.653Z,98189.26
2018-07-19T19:42:28.133Z,98191.94
2018-07-19T19:44:57.556Z,98188.20
2018-07-19T19:47:27.036Z,98194.35
2018-07-19T19:49:56.572Z,98194.34
2018-07-19T19:52:27.028Z,98197.83
2018-07-19T19:54:56.501Z,98195.94
2018-07-19T19:57:25.929Z,98200.50
2018-07-19T19:59:55.372Z,98199.68
2018-07-19T20:02:24.841Z,98207.38
2018-07-19T20:04:54.287Z,98207.36
2018-07-19T20:07:23.800Z,98213.20
2018-07-19T20:09:53.568Z,98221.73
2018-07-19T20:12:23.051Z,98220.65
2018-07-19T20:14:52.466Z,98223.60
2018-07-19T20:17:22.207Z,98221.18
2018-07-19T20:19:51.873Z,98217.95
2018-07-19T20:22:21.349Z,98227.02
2018-07-19T20:24:50.816Z,98227.51
2018-07-19T20:27:20.249Z,98230.70
2018-07-19T20:29:49.690Z,98234.86
2018-07-19T20:32:19.195Z,98237.48
2018-07-19T20:34:48.621Z,98234.78
2018-07-19T20:37:18.056Z,98226.78
2018-07-19T20:39:47.488Z,98227.01
2018-07-19T20:42:16.900Z,98229.09
2018-07-19T20:44:46.397Z,98226.91
2018-07-19T20:47:15.942Z,98226.55
2018-07-19T20:49:45.402Z,98234.82
2018-07-19T20:52:14.906Z,98236.67
2018-07-19T20:54:44.470Z,98228.62
2018-07-19T20:57:13.924Z,98225.05
2018-07-19T20:59:43.361Z,98225.58
2018-07-19T21:02:12.903Z,98224.48
2018-07-19T21:04:42.358Z,98225.77
2018-07-19T21:07:11.847Z,98223.81
2018-07-19T21:09:41.286Z,98221.58
2018-07-19T21:12:10.751Z,98224.20
2018-07-19T21:14:40.263Z,98227.09
2018-07-19T21:17:09.820Z,98220.64
2018-07-19T21:19:39.216Z,98226.17
2018-07-19T21:22:08.661Z,98225.02
2018-07-19T21:24:38.091Z,98227.86
2018-07-19T21:27:07.564Z,98228.13
2018-07-19T21:29:37.004Z,98229.98
2018-07-19T21:32:06.521Z,98229.41
2018-07-19T21:34:35.999Z,98230.92
2018-07-19T21:37:05.506Z,98232.93
2018-07-19T21:39:35.011Z,98235.52
2018-07-19T21:42:04.458Z,98233.88
2018-07-19T21:44:34.005Z,98236.73
2018-07-19T21:47:03.462Z,98237.44
2018-07-19T21:49:32.870Z,98238.20
2018-07-19T21:52:02.324Z,98235.80
2018-07-19T21:54:31.809Z,98242.94
2018-07-19T21:57:01.220Z,98244.02
2018-07-19T21:59:30.616Z,98240.23
2018-07-19T22:02:00.039Z,98242.89
2018-07-19T22:04:29.436Z,98248.44
2018-07-19T22:06:58.955Z,98246.36
2018-07-19T22:09:28.464Z,98240.96
2018-07-19T22:11:57.999Z,98241.66
2018-07-19T22:14:27.389Z,98243.20
2018-07-19T22:16:56.934Z,98242.66
2018-07-19T22:19:26.313Z,98247.13
2018-07-19T22:21:55.800Z,98239.39
2018-07-19T22:24:25.216Z,98242.77
2018-07-19T22:26:54.665Z,98243.47
2018-07-19T22:29:24.132Z,98235.94
2018-07-19T22:31:53.581Z,98243.59
2018-07-19T22:34:23.023Z,98245.05
2018-07-19T22:36:52.443Z,98245.74
2018-07-19T22:39:21.843Z,98251.77
2018-07-19T22:41:51.379Z,98247.66
2018-07-19T22:44:20.869Z,98247.69
2018-07-19T22:46:50.301Z,98253.75
2018-07-19T22:49:19.790Z,98251.84
2018-07-19T22:51:49.283Z,98251.48
2018-07-19T22:54:18.738Z,98250.09
2018-07-19T22:56:48.222Z,98256.98
2018-07-19T22:59:17.688Z,98257.76
2018-07-19T23:01:47.125Z,98256.40
2018-07-19T23:04:16.603Z,98250.47
2018-07-19T23:06:46.090Z,98257.30
2018-07-19T23:09:15.482Z,98251.99
2018-07-19T23:11:44.881Z,98243.97
2018-07-19T23:14:14.333Z,98244.64
2018-07-19T23:16:43.761Z,98244.38
2018-07-19T23:19:13.256Z,98243.34
2018-07-19T23:21:42.662Z,98240.66
2018-07-19T23:24:12.154Z,98239.33
2018-07-19T23:26:41.608Z,98236.38
2018-07-19T23:29:11.108Z,98235.47
2018-07-19T23:31:40.569Z,98232.94
2018-07-19T23:34:10.030Z,98234.20
2018-07-19T23:36:55.047Z,98230.89
2018-07-19T23:39:28.257Z,98230.89
2018-07-19T23:42:02.816Z,98228.60
2018-07-19T23:45:07.344Z,98224.41
2018-07-19T23:47:38.792Z,98226.20
2018-07-19T23:50:08.270Z,98228.79
2018-07-19T23:52:37.803Z,98219.98
2018-07-19T23:55:07.345Z,98218.00
2018-07-19T23:57:36.804Z,98221.71
